Select Airport:
Chesapeake Regional Airport
Last updated: 5 minutes ago
Flight conditions: VFR
Visibility: 7.0 statute miles
Sky Conditions:
   Scattered clouds at 2700 feet
   Scattered clouds at 3300 feet
   Scattered clouds at 8500 feet
Wind From: 190°
Wind speed: 7 knots (8.05 mph)
Temperature: 25.8°C (78.44°F)
Dew Point: 22.7°C (72.86°F)
Altimiter setting: 29.80 in-hg
WX phone: 1-757-204-4290
WX freq: 123.675 MHz
Runway 23
   Crosswind component: 4.5 knots (5.17 mph)
   Headwind component: 5.36 knots (6.17 mph)
KCPK 281855Z AUTO 19007KT 7SM SCT027 SCT033 SCT085 26/23 A2980 RMK AO2 LTG DSNT SW AND W T02580227
FOR REFERENCE USE ONLY, DATA MAY NOT BE CURRENT.
ALWAYS CHECK FOR UP TO DATE INFORMATION.